createdAt,value
2022-09-06T00:04:15.085Z,94056.52
2022-09-06T00:09:19.024Z,94057.02
2022-09-06T00:14:25.945Z,94051.65
2022-09-06T00:19:33.166Z,94055.64
2022-09-06T00:24:41.582Z,94054.53
2022-09-06T00:29:48.997Z,94050.37
2022-09-06T00:34:55.976Z,94044.61
2022-09-06T00:40:03.721Z,94041.74
2022-09-06T00:45:12.684Z,94042.47
2022-09-06T00:50:21.565Z,94040.36
2022-09-06T00:55:29.164Z,94038.26
2022-09-06T01:00:36.796Z,94034.78
2022-09-06T01:06:13.827Z,94037.19
2022-09-06T01:11:34.518Z,94033.99
2022-09-06T01:16:45.944Z,94027.66
2022-09-06T01:22:12.335Z,94022.11
2022-09-06T01:27:40.173Z,94012.80
2022-09-06T01:33:12.325Z,94009.19
2022-09-06T01:38:19.755Z,94014.83
2022-09-06T01:43:33.516Z,94008.83
2022-09-06T01:48:54.276Z,94007.92
2022-09-06T01:54:23.564Z,94003.34
2022-09-06T01:59:56.144Z,94004.28
2022-09-06T02:05:10.355Z,94002.45
2022-09-06T02:10:39.675Z,93997.46
2022-09-06T02:15:51.405Z,94000.91
2022-09-06T02:21:00.895Z,93987.81
2022-09-06T02:26:29.426Z,93986.92
2022-09-06T02:31:55.197Z,93980.55
2022-09-06T02:37:03.288Z,93982.27
2022-09-06T02:42:13.016Z,93975.48
2022-09-06T02:47:20.475Z,93980.84
2022-09-06T02:52:27.915Z,93980.42
2022-09-06T02:57:34.965Z,93970.01
2022-09-06T03:02:41.913Z,93973.72
2022-09-06T03:07:48.986Z,93981.41
2022-09-06T03:12:56.815Z,93985.90
2022-09-06T03:18:04.085Z,93985.00
2022-09-06T03:23:13.716Z,93978.41
2022-09-06T03:28:21.174Z,93967.40
2022-09-06T03:33:28.526Z,93972.32
2022-09-06T03:38:35.765Z,93966.74
2022-09-06T03:43:42.626Z,93958.95
2022-09-06T03:48:52.026Z,93962.53
2022-09-06T03:54:01.929Z,93965.81
2022-09-06T03:59:08.886Z,93962.89
2022-09-06T04:04:16.075Z,93967.59
2022-09-06T04:09:23.104Z,93967.70
2022-09-06T04:14:30.086Z,93955.30
2022-09-06T04:19:38.281Z,93956.84
2022-09-06T04:24:45.404Z,93954.74
2022-09-06T04:29:52.315Z,93950.42
2022-09-06T04:34:59.224Z,93946.33
2022-09-06T04:40:07.647Z,93954.91
2022-09-06T04:45:14.925Z,93953.59
2022-09-06T04:50:22.979Z,93949.09
2022-09-06T04:55:31.765Z,93953.51
2022-09-06T05:00:39.407Z,93946.03
2022-09-06T05:05:46.470Z,93939.17
2022-09-06T05:10:54.576Z,93940.68
2022-09-06T05:16:09.603Z,93940.81
2022-09-06T05:21:17.046Z,93945.53
2022-09-06T05:26:24.186Z,93951.75
2022-09-06T05:31:34.280Z,93955.23
2022-09-06T05:36:42.416Z,93952.55
2022-09-06T05:41:49.424Z,93949.27
2022-09-06T05:46:56.192Z,93957.28
2022-09-06T05:52:03.405Z,93951.27
2022-09-06T05:57:10.584Z,93952.30
2022-09-06T06:02:17.690Z,93960.45
2022-09-06T06:07:25.274Z,93955.55
2022-09-06T06:12:32.875Z,93952.08
2022-09-06T06:17:39.885Z,93944.25
2022-09-06T06:22:46.904Z,93938.12
2022-09-06T06:27:54.614Z,93944.93
2022-09-06T06:33:03.003Z,93951.17
2022-09-06T06:38:09.910Z,93952.08
2022-09-06T06:43:17.105Z,93955.25
2022-09-06T06:48:24.204Z,93946.72
2022-09-06T06:53:31.537Z,93951.90
2022-09-06T06:58:38.626Z,93949.00
2022-09-06T07:03:45.497Z,93948.51
2022-09-06T07:08:52.577Z,93951.77
2022-09-06T07:13:59.816Z,93962.53
2022-09-06T07:19:06.961Z,93971.61
2022-09-06T07:24:15.677Z,93960.64
2022-09-06T07:29:23.006Z,93958.27
2022-09-06T07:34:30.100Z,93966.75
2022-09-06T07:39:37.550Z,93958.70
2022-09-06T07:44:44.836Z,93970.69
2022-09-06T07:55:00.465Z,93969.95
2022-09-06T08:00:08.305Z,93966.58
2022-09-06T08:10:23.997Z,93969.16
2022-09-06T08:15:33.533Z,93972.28
2022-09-06T08:20:40.805Z,93968.66
2022-09-06T08:25:58.925Z,93965.31
2022-09-06T08:31:15.509Z,93965.11
2022-09-06T08:36:23.125Z,93959.02
2022-09-06T08:41:43.569Z,93962.31
2022-09-06T08:47:12.099Z,93964.28
2022-09-06T08:52:45.329Z,93961.98
2022-09-06T08:58:33.135Z,93959.28
2022-09-06T09:03:42.560Z,93966.16
2022-09-06T09:09:10.605Z,93961.44
2022-09-06T09:14:24.836Z,93958.05
2022-09-06T09:19:33.626Z,93964.72
2022-09-06T09:24:40.765Z,93961.85
2022-09-06T09:35:42.785Z,93941.00
2022-09-06T09:40:56.385Z,93938.17
2022-09-06T09:46:25.895Z,93933.94
2022-09-06T09:51:38.934Z,93919.08
2022-09-06T09:56:55.557Z,93922.91
2022-09-06T10:02:06.655Z,93909.39
2022-09-06T10:07:22.494Z,93905.40
2022-09-06T10:12:36.046Z,93904.05
2022-09-06T10:17:53.784Z,93896.35
2022-09-06T10:28:45.139Z,93901.03
2022-09-06T10:34:16.004Z,93903.25
2022-09-06T10:39:42.235Z,93903.16
2022-09-06T10:45:33.346Z,93904.80
2022-09-06T10:51:09.645Z,93894.91
2022-09-06T10:56:36.088Z,93891.45
2022-09-06T11:01:56.185Z,93893.57
2022-09-06T11:07:10.245Z,93893.92
2022-09-06T11:12:42.489Z,93887.45
2022-09-06T11:18:13.325Z,93876.09
2022-09-06T11:23:42.645Z,93876.23
2022-09-06T11:29:01.798Z,93873.13
2022-09-06T11:34:27.465Z,93872.10
2022-09-06T11:45:02.704Z,93866.24
2022-09-06T11:50:29.594Z,93853.45
2022-09-06T11:55:46.605Z,93854.39
2022-09-06T12:01:20.833Z,93853.23
2022-09-06T12:06:32.094Z,93855.65
2022-09-06T12:11:45.437Z,93843.89
2022-09-06T12:17:07.194Z,93839.73
2022-09-06T12:22:40.584Z,93833.70
2022-09-06T12:27:59.825Z,93831.81
2022-09-06T12:33:16.765Z,93835.48
2022-09-06T12:38:27.834Z,93826.10
2022-09-06T12:43:36.824Z,93817.69
2022-09-06T12:48:45.315Z,93820.73
2022-09-06T12:54:05.365Z,93809.77
2022-09-06T12:59:25.605Z,93809.41
2022-09-06T13:04:40.455Z,93807.51
2022-09-06T13:09:52.554Z,93805.10
2022-09-06T13:15:20.961Z,93791.88
2022-09-06T13:20:32.028Z,93793.17
2022-09-06T13:25:51.606Z,93790.90
2022-09-06T13:31:22.334Z,93781.33
2022-09-06T13:36:34.363Z,93777.70
2022-09-06T13:41:42.735Z,93775.05
2022-09-06T13:46:53.905Z,93767.58
2022-09-06T13:52:03.636Z,93770.00
2022-09-06T13:57:10.486Z,93771.56
2022-09-06T14:02:19.150Z,93773.03
2022-09-06T14:07:26.095Z,93768.25
2022-09-06T14:12:34.612Z,93763.12
2022-09-06T14:17:41.696Z,93767.14
2022-09-06T14:22:53.549Z,93756.03
2022-09-06T14:28:01.577Z,93755.89
2022-09-06T14:33:08.426Z,93771.70
2022-09-06T14:38:15.856Z,93770.37
2022-09-06T14:43:24.655Z,93762.89
2022-09-06T14:48:31.734Z,93759.78
2022-09-06T14:53:44.765Z,93760.06
2022-09-06T14:58:50.865Z,93765.87
2022-09-06T15:04:01.175Z,93759.02
2022-09-06T15:09:08.685Z,93757.47
2022-09-06T15:14:22.936Z,93756.41
2022-09-06T15:19:33.517Z,93756.38
2022-09-06T15:24:40.997Z,93763.94
2022-09-06T15:29:48.135Z,93762.27
2022-09-06T15:34:55.196Z,93766.72
2022-09-06T15:40:01.988Z,93765.02
2022-09-06T15:45:10.614Z,93764.98
2022-09-06T15:50:34.470Z,93763.77
2022-09-06T15:55:43.967Z,93756.78
2022-09-06T16:01:06.262Z,93755.89
2022-09-06T16:06:28.735Z,93750.22
2022-09-06T16:11:37.212Z,93751.81
2022-09-06T16:16:45.208Z,93763.09
2022-09-06T16:21:52.017Z,93763.29
2022-09-06T16:26:59.728Z,93762.51
2022-09-06T16:32:07.076Z,93761.93
2022-09-06T16:37:14.549Z,93762.30
2022-09-06T16:42:21.822Z,93768.45
2022-09-06T16:47:28.731Z,93765.52
2022-09-06T16:52:35.957Z,93767.31
2022-09-06T16:57:42.905Z,93767.20
2022-09-06T17:02:50.093Z,93760.34
2022-09-06T17:07:57.335Z,93750.64
2022-09-06T17:13:04.445Z,93751.99
2022-09-06T17:18:12.425Z,93747.43
2022-09-06T17:23:19.844Z,93749.45
2022-09-06T17:28:27.615Z,93750.36
2022-09-06T17:33:36.015Z,93737.51
2022-09-06T17:38:44.985Z,93746.31
2022-09-06T17:43:54.407Z,93744.70
2022-09-06T17:49:01.850Z,93748.68
2022-09-06T17:54:10.744Z,93760.14
2022-09-06T17:59:17.989Z,93768.67
2022-09-06T18:04:25.096Z,93755.70
2022-09-06T18:09:32.365Z,93763.30
2022-09-06T18:14:39.844Z,93759.91
2022-09-06T18:19:48.192Z,93763.69
2022-09-06T18:24:58.342Z,93767.23
2022-09-06T18:30:05.757Z,93767.28
2022-09-06T18:35:12.975Z,93769.48
2022-09-06T18:40:20.264Z,93785.03
2022-09-06T18:45:27.202Z,93793.85
2022-09-06T18:50:34.657Z,93794.97
2022-09-06T18:55:45.019Z,93802.95
2022-09-06T19:00:53.093Z,93804.72
2022-09-06T19:06:06.844Z,93806.81
2022-09-06T19:11:20.387Z,93816.09
2022-09-06T19:16:27.873Z,93820.36
2022-09-06T19:21:39.350Z,93818.64
2022-09-06T19:26:46.336Z,93827.52
2022-09-06T19:31:54.757Z,93831.55
2022-09-06T19:37:02.899Z,93840.70
2022-09-06T19:42:11.569Z,93840.30
2022-09-06T19:47:18.775Z,93854.58
2022-09-06T19:52:27.704Z,93861.30
2022-09-06T19:57:40.426Z,93869.70
2022-09-06T20:02:48.678Z,93876.49
2022-09-06T20:07:57.185Z,93866.11
2022-09-06T20:13:06.019Z,93878.56
2022-09-06T20:18:15.307Z,93879.50
2022-09-06T20:23:23.824Z,93876.34
2022-09-06T20:28:32.504Z,93879.19
2022-09-06T20:33:42.201Z,93875.72
2022-09-06T20:38:51.384Z,93870.34
2022-09-06T20:44:00.648Z,93887.42
2022-09-06T20:49:09.658Z,93889.72
2022-09-06T20:54:16.804Z,93881.61
2022-09-06T20:59:25.275Z,93898.16
2022-09-06T21:04:33.899Z,93884.44
2022-09-06T21:09:42.121Z,93874.91
2022-09-06T21:14:49.115Z,93898.63
2022-09-06T21:19:56.716Z,93904.23
2022-09-06T21:25:04.667Z,93898.02
2022-09-06T21:30:13.709Z,93904.58
2022-09-06T21:35:22.115Z,93906.23
2022-09-06T21:40:29.431Z,93905.34
2022-09-06T21:45:39.538Z,93900.95
2022-09-06T21:50:49.705Z,93900.36
2022-09-06T21:56:06.303Z,93888.42
2022-09-06T22:01:15.716Z,93891.46
2022-09-06T22:06:30.607Z,93898.97
2022-09-06T22:11:41.095Z,93894.34
2022-09-06T22:16:48.495Z,93880.49
2022-09-06T22:21:59.597Z,93881.23
2022-09-06T22:27:06.647Z,93873.66
2022-09-06T22:32:13.795Z,93869.94
2022-09-06T22:37:20.717Z,93863.61
2022-09-06T22:42:28.165Z,93860.84
2022-09-06T22:47:35.138Z,93846.01
2022-09-06T22:52:44.483Z,93830.41
2022-09-06T22:57:51.426Z,93832.73
2022-09-06T23:02:59.447Z,93825.23
2022-09-06T23:08:08.050Z,93814.77
2022-09-06T23:13:15.795Z,93816.05
2022-09-06T23:18:22.926Z,93812.59
2022-09-06T23:23:29.716Z,93814.45
2022-09-06T23:28:37.447Z,93801.03
2022-09-06T23:33:45.897Z,93791.99
2022-09-06T23:38:52.896Z,93782.03
2022-09-06T23:44:01.076Z,93775.80
2022-09-06T23:49:08.055Z,93772.80
2022-09-06T23:54:17.974Z,93772.25
2022-09-06T23:59:24.895Z,93766.80
